createdAt,value
2018-12-11T00:00:21.597Z,1017.74
2018-12-11T00:01:21.584Z,1017.74
2018-12-11T00:02:21.578Z,1017.82
2018-12-11T00:03:21.561Z,1017.84
2018-12-11T00:04:21.573Z,1017.80
2018-12-11T00:05:21.550Z,1017.82
2018-12-11T00:06:21.530Z,1017.87
2018-12-11T00:07:21.521Z,1017.82
2018-12-11T00:08:21.516Z,1017.80
2018-12-11T00:09:21.521Z,1017.84
2018-12-11T00:10:21.503Z,1017.89
2018-12-11T00:11:21.477Z,1017.83
2018-12-11T00:12:21.497Z,1017.80
2018-12-11T00:13:21.455Z,1017.86
2018-12-11T00:14:21.467Z,1017.81
2018-12-11T00:15:21.440Z,1017.83
2018-12-11T00:16:21.443Z,1017.83
2018-12-11T00:17:21.417Z,1017.80
2018-12-11T00:18:21.405Z,1017.79
2018-12-11T00:19:21.408Z,1017.83
2018-12-11T00:20:21.397Z,1017.78
2018-12-11T00:21:21.369Z,1017.85
2018-12-11T00:22:28.958Z,1017.82
2018-12-11T00:23:21.349Z,1017.75
2018-12-11T00:24:21.362Z,1017.76
2018-12-11T00:25:21.331Z,1017.74
2018-12-11T00:26:21.314Z,1017.65
2018-12-11T00:27:21.312Z,1017.69
2018-12-11T00:28:21.302Z,1017.76
2018-12-11T00:29:21.289Z,1017.72
2018-12-11T00:30:21.294Z,1017.74
2018-12-11T00:31:21.304Z,1017.84
2018-12-11T00:32:28.845Z,1017.72
2018-12-11T00:33:21.265Z,1017.73
2018-12-11T00:34:21.234Z,1017.75
2018-12-11T00:35:21.242Z,1017.76
2018-12-11T00:36:21.218Z,1017.74
2018-12-11T00:37:21.200Z,1017.83
2018-12-11T00:38:21.196Z,1017.81
2018-12-11T00:39:21.180Z,1017.81
2018-12-11T00:40:21.188Z,1017.84
2018-12-11T00:41:21.157Z,1017.74
2018-12-11T00:42:21.220Z,1017.76
2018-12-11T00:43:21.137Z,1017.82
2018-12-11T00:44:21.133Z,1017.75
2018-12-11T00:45:21.136Z,1017.77
2018-12-11T00:46:21.101Z,1017.79
2018-12-11T00:47:21.095Z,1017.79
2018-12-11T00:48:21.085Z,1017.74
2018-12-11T00:49:21.072Z,1017.74
2018-12-11T00:50:21.104Z,1017.77
2018-12-11T00:51:21.065Z,1017.73
2018-12-11T00:52:21.038Z,1017.72
2018-12-11T00:53:21.028Z,1017.73
2018-12-11T00:54:21.020Z,1017.73
2018-12-11T00:55:21.017Z,1017.77
2018-12-11T00:56:21.015Z,1017.72
2018-12-11T00:57:20.987Z,1017.75
2018-12-11T00:58:21.009Z,1017.83
2018-12-11T00:59:20.974Z,1017.75
2018-12-11T01:00:20.956Z,1017.76
2018-12-11T01:01:20.968Z,1017.73
2018-12-11T01:02:20.944Z,1017.75
2018-12-11T01:03:20.941Z,1017.74
2018-12-11T01:04:20.914Z,1017.73
2018-12-11T01:05:20.902Z,1017.76
2018-12-11T01:06:20.917Z,1017.78
2018-12-11T01:07:20.882Z,1017.82
2018-12-11T01:08:20.873Z,1017.86
2018-12-11T01:09:20.859Z,1017.85
2018-12-11T01:10:20.845Z,1017.80
2018-12-11T01:11:20.862Z,1017.84
2018-12-11T01:12:20.823Z,1017.90
2018-12-11T01:13:20.816Z,1017.87
2018-12-11T01:14:20.832Z,1017.85
2018-12-11T01:15:20.795Z,1017.83
2018-12-11T01:16:20.782Z,1017.82
2018-12-11T01:17:20.799Z,1017.83
2018-12-11T01:18:20.761Z,1017.85
2018-12-11T01:19:20.749Z,1017.87
2018-12-11T01:20:20.740Z,1017.85
2018-12-11T01:21:20.731Z,1017.86
2018-12-11T01:22:20.734Z,1017.87
2018-12-11T01:23:20.714Z,1017.83
2018-12-11T01:24:20.693Z,1017.78
2018-12-11T01:25:20.679Z,1017.82
2018-12-11T01:26:20.669Z,1017.84
2018-12-11T01:27:20.679Z,1017.87
2018-12-11T01:28:20.650Z,1017.87
2018-12-11T01:29:20.646Z,1017.87
2018-12-11T01:30:20.627Z,1017.81
2018-12-11T01:31:20.614Z,1017.87
2018-12-11T01:32:20.666Z,1017.87
2018-12-11T01:33:20.609Z,1017.88
2018-12-11T01:34:20.585Z,1017.84
2018-12-11T01:35:20.581Z,1017.80
2018-12-11T01:36:20.559Z,1017.85
2018-12-11T01:37:20.575Z,1017.88
2018-12-11T01:38:20.539Z,1017.88
2018-12-11T01:39:28.098Z,1017.79
2018-12-11T01:40:20.517Z,1017.81
2018-12-11T01:41:20.516Z,1017.80
2018-12-11T01:42:20.519Z,1017.83
2018-12-11T01:43:20.505Z,1017.75
2018-12-11T01:44:20.494Z,1017.79
2018-12-11T01:45:20.462Z,1017.82
2018-12-11T01:46:20.457Z,1017.80
2018-12-11T01:47:20.466Z,1017.71
2018-12-11T01:48:20.433Z,1017.80
2018-12-11T01:49:20.417Z,1017.74
2018-12-11T01:50:20.454Z,1017.78
2018-12-11T01:51:20.401Z,1017.82
2018-12-11T01:52:20.432Z,1017.83
2018-12-11T01:53:20.380Z,1017.77
2018-12-11T01:54:20.363Z,1017.80
2018-12-11T01:55:20.353Z,1017.78
2018-12-11T01:56:20.358Z,1017.80
2018-12-11T01:57:20.334Z,1017.74
2018-12-11T01:58:20.366Z,1017.76
2018-12-11T01:59:20.311Z,1017.78
2018-12-11T02:00:20.302Z,1017.75
2018-12-11T02:01:20.284Z,1017.76
2018-12-11T02:02:20.288Z,1017.75
2018-12-11T02:03:20.288Z,1017.72
2018-12-11T02:04:20.257Z,1017.76
2018-12-11T02:05:20.247Z,1017.70
2018-12-11T02:06:20.257Z,1017.76
2018-12-11T02:07:20.227Z,1017.75
2018-12-11T02:08:20.229Z,1017.74
2018-12-11T02:09:20.209Z,1017.72
2018-12-11T02:10:20.203Z,1017.76
2018-12-11T02:11:20.214Z,1017.78
2018-12-11T02:12:20.180Z,1017.82
2018-12-11T02:13:20.177Z,1017.87
2018-12-11T02:14:20.157Z,1017.78
2018-12-11T02:15:20.166Z,1017.78
2018-12-11T02:16:20.174Z,1017.76
2018-12-11T02:17:20.182Z,1017.79
2018-12-11T02:18:20.130Z,1017.75
2018-12-11T02:19:20.099Z,1017.74
2018-12-11T02:20:20.080Z,1017.78
2018-12-11T02:21:20.073Z,1017.81
2018-12-11T02:22:20.084Z,1017.75
2018-12-11T02:23:20.114Z,1017.79
2018-12-11T02:24:20.039Z,1017.83
2018-12-11T02:25:20.045Z,1017.80
2018-12-11T02:26:20.039Z,1017.79
2018-12-11T02:27:20.016Z,1017.75
2018-12-11T02:28:20.019Z,1017.74
2018-12-11T02:29:19.983Z,1017.76
2018-12-11T02:30:19.979Z,1017.78
2018-12-11T02:31:19.977Z,1017.75
2018-12-11T02:32:19.961Z,1017.74
2018-12-11T02:33:20.000Z,1017.75
2018-12-11T02:34:19.937Z,1017.75
2018-12-11T02:35:19.918Z,1017.74
2018-12-11T02:36:19.913Z,1017.73
2018-12-11T02:37:19.898Z,1017.73
2018-12-11T02:38:19.972Z,1017.66
2018-12-11T02:39:19.879Z,1017.68
2018-12-11T02:40:19.861Z,1017.67
2018-12-11T02:41:19.851Z,1017.74
2018-12-11T02:42:19.859Z,1017.70
2018-12-11T02:43:19.863Z,1017.72
2018-12-11T02:44:19.832Z,1017.67
2018-12-11T02:45:19.814Z,1017.70
2018-12-11T02:46:19.810Z,1017.65
2018-12-11T02:47:19.799Z,1017.68
2018-12-11T02:48:19.806Z,1017.71
2018-12-11T02:49:19.776Z,1017.72
2018-12-11T02:50:19.752Z,1017.72
2018-12-11T02:51:19.742Z,1017.77
2018-12-11T02:52:19.735Z,1017.70
2018-12-11T02:53:19.764Z,1017.68
2018-12-11T02:54:19.719Z,1017.65
2018-12-11T02:55:27.237Z,1017.67
2018-12-11T02:56:19.687Z,1017.68
2018-12-11T02:57:19.672Z,1017.70
2018-12-11T02:58:19.661Z,1017.68
2018-12-11T02:59:19.678Z,1017.70
2018-12-11T03:00:19.710Z,1017.68
2018-12-11T03:01:27.176Z,1017.66
2018-12-11T03:02:19.679Z,1017.65
2018-12-11T03:03:19.606Z,1017.64
2018-12-11T03:04:19.611Z,1017.67
2018-12-11T03:05:19.585Z,1017.70
2018-12-11T03:06:19.579Z,1017.74
2018-12-11T03:07:19.600Z,1017.73
2018-12-11T03:08:19.558Z,1017.64
2018-12-11T03:09:19.565Z,1017.62
2018-12-11T03:10:19.535Z,1017.74
2018-12-11T03:11:19.519Z,1017.75
2018-12-11T03:12:19.517Z,1017.69
2018-12-11T03:13:19.510Z,1017.70
2018-12-11T03:14:19.501Z,1017.71
2018-12-11T03:15:19.503Z,1017.70
2018-12-11T03:16:19.461Z,1017.68
2018-12-11T03:17:19.492Z,1017.73
2018-12-11T03:18:19.455Z,1017.71
2018-12-11T03:19:19.439Z,1017.70
2018-12-11T03:20:19.454Z,1017.70
2018-12-11T03:21:19.482Z,1017.65
2018-12-11T03:22:19.395Z,1017.72
2018-12-11T03:23:19.417Z,1017.67
2018-12-11T03:24:19.399Z,1017.63
2018-12-11T03:25:19.400Z,1017.58
2018-12-11T03:26:19.351Z,1017.61
2018-12-11T03:27:19.365Z,1017.58
2018-12-11T03:28:26.869Z,1017.57
2018-12-11T03:29:19.318Z,1017.52
2018-12-11T03:30:19.333Z,1017.55
2018-12-11T03:31:19.299Z,1017.54
2018-12-11T03:32:19.288Z,1017.52
2018-12-11T03:33:19.282Z,1017.51
2018-12-11T03:34:19.266Z,1017.49
2018-12-11T03:35:19.284Z,1017.51
2018-12-11T03:36:19.252Z,1017.52
2018-12-11T03:37:19.254Z,1017.45
2018-12-11T03:38:19.224Z,1017.50
2018-12-11T03:39:19.222Z,1017.54
2018-12-11T03:40:19.238Z,1017.53
2018-12-11T03:41:19.212Z,1017.53
2018-12-11T03:42:19.202Z,1017.52
2018-12-11T03:43:19.197Z,1017.50
2018-12-11T03:44:19.160Z,1017.54
2018-12-11T03:45:19.185Z,1017.47
2018-12-11T03:46:19.146Z,1017.50
2018-12-11T03:47:19.141Z,1017.45
2018-12-11T03:48:19.153Z,1017.46
2018-12-11T03:49:19.110Z,1017.45
2018-12-11T03:50:19.098Z,1017.50
2018-12-11T03:51:19.145Z,1017.54
2018-12-11T03:52:21.528Z,1017.52
2018-12-11T03:53:19.067Z,1017.51
2018-12-11T03:54:19.087Z,1017.50
2018-12-11T03:55:19.047Z,1017.49
2018-12-11T03:56:19.035Z,1017.47
2018-12-11T03:57:19.047Z,1017.46
2018-12-11T03:58:19.033Z,1017.43
2018-12-11T03:59:18.999Z,1017.47
2018-12-11T04:00:18.988Z,1017.48
2018-12-11T04:01:19.017Z,1017.54
2018-12-11T04:02:19.012Z,1017.53
2018-12-11T04:03:18.952Z,1017.53
2018-12-11T04:04:18.953Z,1017.56
2018-12-11T04:05:18.977Z,1017.57
2018-12-11T04:06:18.925Z,1017.54
2018-12-11T04:07:18.927Z,1017.50
2018-12-11T04:08:18.906Z,1017.50
2018-12-11T04:09:18.893Z,1017.51
2018-12-11T04:10:18.890Z,1017.53
2018-12-11T04:11:18.891Z,1017.48
2018-12-11T04:12:18.857Z,1017.51
2018-12-11T04:13:18.862Z,1017.52
2018-12-11T04:14:18.844Z,1017.53
2018-12-11T04:15:18.822Z,1017.57
2018-12-11T04:16:18.827Z,1017.64
2018-12-11T04:17:18.869Z,1017.64
2018-12-11T04:18:18.789Z,1017.53
2018-12-11T04:19:18.795Z,1017.51
2018-12-11T04:20:18.774Z,1017.53
2018-12-11T04:21:18.764Z,1017.55
2018-12-11T04:22:18.758Z,1017.48
2018-12-11T04:23:18.789Z,1017.58
2018-12-11T04:24:18.755Z,1017.57
2018-12-11T04:25:18.739Z,1017.68
2018-12-11T04:26:18.704Z,1017.63
2018-12-11T04:27:18.694Z,1017.64
2018-12-11T04:28:18.742Z,1017.62
2018-12-11T04:29:18.673Z,1017.57
2018-12-11T04:30:18.661Z,1017.63
2018-12-11T04:31:18.661Z,1017.61
2018-12-11T04:32:18.658Z,1017.65
2018-12-11T04:33:18.634Z,1017.74
2018-12-11T04:34:18.649Z,1017.66
2018-12-11T04:35:18.640Z,1017.66
2018-12-11T04:36:18.612Z,1017.61
2018-12-11T04:37:18.583Z,1017.61
2018-12-11T04:38:18.601Z,1017.65
2018-12-11T04:39:18.584Z,1017.65
2018-12-11T04:40:18.575Z,1017.64
2018-12-11T04:41:18.556Z,1017.64
2018-12-11T04:42:18.533Z,1017.65
2018-12-11T04:43:18.535Z,1017.67
2018-12-11T04:44:18.583Z,1017.72
2018-12-11T04:45:18.522Z,1017.67
2018-12-11T04:46:18.482Z,1017.67
2018-12-11T04:47:18.475Z,1017.68
2018-12-11T04:48:18.497Z,1017.66
2018-12-11T04:49:18.457Z,1017.72
2018-12-11T04:50:18.460Z,1017.62
2018-12-11T04:51:18.426Z,1017.70
2018-12-11T04:52:18.418Z,1017.71
2018-12-11T04:53:18.428Z,1017.67
2018-12-11T04:54:18.399Z,1017.59
2018-12-11T04:55:18.384Z,1017.68
2018-12-11T04:56:18.405Z,1017.66
2018-12-11T04:57:18.369Z,1017.65
2018-12-11T04:58:18.352Z,1017.66
2018-12-11T04:59:18.373Z,1017.71
2018-12-11T05:00:18.331Z,1017.74
2018-12-11T05:01:18.335Z,1017.69
2018-12-11T05:02:18.342Z,1017.68
2018-12-11T05:03:18.293Z,1017.71
2018-12-11T05:04:18.314Z,1017.70
2018-12-11T05:05:18.299Z,1017.71
2018-12-11T05:06:18.273Z,1017.75
2018-12-11T05:07:18.262Z,1017.70
2018-12-11T05:08:18.242Z,1017.71
2018-12-11T05:09:18.266Z,1017.71
2018-12-11T05:10:18.228Z,1017.77
2018-12-11T05:11:18.206Z,1017.74
2018-12-11T05:12:18.252Z,1017.75
2018-12-11T05:13:18.225Z,1017.68
2018-12-11T05:14:18.178Z,1017.72
2018-12-11T05:15:18.199Z,1017.66
2018-12-11T05:16:18.159Z,1017.69
2018-12-11T05:17:18.153Z,1017.67
2018-12-11T05:18:18.150Z,1017.65
2018-12-11T05:19:18.121Z,1017.67
2018-12-11T05:20:18.188Z,1017.61
2018-12-11T05:21:18.098Z,1017.64
2018-12-11T05:22:18.092Z,1017.60
2018-12-11T05:23:18.083Z,1017.63
2018-12-11T05:24:18.109Z,1017.60
2018-12-11T05:25:18.052Z,1017.58
2018-12-11T05:26:18.058Z,1017.61
2018-12-11T05:27:18.047Z,1017.64
2018-12-11T05:28:18.023Z,1017.62
2018-12-11T05:29:18.023Z,1017.68
2018-12-11T05:30:17.997Z,1017.65
2018-12-11T05:31:18.005Z,1017.71
2018-12-11T05:32:18.008Z,1017.69
2018-12-11T05:33:17.968Z,1017.69
2018-12-11T05:34:17.982Z,1017.65
2018-12-11T05:35:17.970Z,1017.68
2018-12-11T05:36:17.954Z,1017.66
2018-12-11T05:37:17.925Z,1017.63
2018-12-11T05:38:17.912Z,1017.62
2018-12-11T05:39:17.909Z,1017.61
2018-12-11T05:40:17.904Z,1017.59
2018-12-11T05:41:17.889Z,1017.61
2018-12-11T05:42:17.889Z,1017.58
2018-12-11T05:43:17.860Z,1017.63
2018-12-11T05:44:17.843Z,1017.57
2018-12-11T05:45:17.838Z,1017.57
2018-12-11T05:46:17.843Z,1017.58
2018-12-11T05:47:17.850Z,1017.53
2018-12-11T05:48:17.811Z,1017.57
2018-12-11T05:49:17.791Z,1017.55
2018-12-11T05:50:17.780Z,1017.55
2018-12-11T05:51:17.779Z,1017.53
2018-12-11T05:52:17.798Z,1017.52
2018-12-11T05:53:17.746Z,1017.47
2018-12-11T05:54:17.738Z,1017.53
2018-12-11T05:55:17.732Z,1017.50
2018-12-11T05:56:17.710Z,1017.53
2018-12-11T05:57:17.703Z,1017.50
2018-12-11T05:58:17.749Z,1017.55
2018-12-11T05:59:17.678Z,1017.50
2018-12-11T06:00:17.667Z,1017.55
2018-12-11T06:01:17.729Z,1017.56
2018-12-11T06:02:17.656Z,1017.52
2018-12-11T06:03:17.673Z,1017.58
2018-12-11T06:04:17.638Z,1017.51
2018-12-11T06:05:17.650Z,1017.56
2018-12-11T06:06:17.606Z,1017.56
2018-12-11T06:07:17.590Z,1017.56
2018-12-11T06:08:17.621Z,1017.56
2018-12-11T06:09:17.574Z,1017.58
2018-12-11T06:10:17.577Z,1017.66
2018-12-11T06:11:17.594Z,1017.65
2018-12-11T06:12:17.622Z,1017.71
2018-12-11T06:13:17.600Z,1017.64
2018-12-11T06:14:17.553Z,1017.68
2018-12-11T06:15:17.506Z,1017.69
2018-12-11T06:16:17.535Z,1017.70
2018-12-11T06:17:17.547Z,1017.65
2018-12-11T06:18:17.511Z,1017.63
2018-12-11T06:19:17.461Z,1017.61
2018-12-11T06:20:17.454Z,1017.58
2018-12-11T06:21:17.458Z,1017.61
2018-12-11T06:22:17.429Z,1017.62
2018-12-11T06:23:17.442Z,1017.68
2018-12-11T06:24:17.426Z,1017.65
2018-12-11T06:25:17.416Z,1017.64
2018-12-11T06:26:25.931Z,1017.62
2018-12-11T06:27:17.373Z,1017.63
2018-12-11T06:28:17.361Z,1017.71
2018-12-11T06:29:17.369Z,1017.75
2018-12-11T06:30:17.350Z,1017.67
2018-12-11T06:31:17.333Z,1017.68
2018-12-11T06:32:17.326Z,1017.66
2018-12-11T06:33:17.366Z,1017.63
2018-12-11T06:34:17.343Z,1017.74
2018-12-11T06:35:17.299Z,1017.65
2018-12-11T06:36:17.279Z,1017.72
2018-12-11T06:37:17.298Z,1017.70
2018-12-11T06:38:17.259Z,1017.70
2018-12-11T06:39:17.288Z,1017.71
2018-12-11T06:40:17.275Z,1017.79
2018-12-11T06:41:17.223Z,1017.78
2018-12-11T06:42:17.209Z,1017.76
2018-12-11T06:43:17.203Z,1017.78
2018-12-11T06:44:17.249Z,1017.77
2018-12-11T06:45:17.201Z,1017.73
2018-12-11T06:46:17.167Z,1017.76
2018-12-11T06:47:17.192Z,1017.75
2018-12-11T06:48:17.145Z,1017.68
2018-12-11T06:49:17.144Z,1017.65
2018-12-11T06:50:17.161Z,1017.67
2018-12-11T06:51:17.112Z,1017.69
2018-12-11T06:52:17.114Z,1017.66
2018-12-11T06:53:17.094Z,1017.67
2018-12-11T06:54:17.080Z,1017.70
2018-12-11T06:55:17.081Z,1017.63
2018-12-11T06:56:17.080Z,1017.63
2018-12-11T06:57:17.049Z,1017.67
2018-12-11T06:58:17.040Z,1017.66
2018-12-11T06:59:17.028Z,1017.60
2018-12-11T07:00:17.017Z,1017.64
2018-12-11T07:01:17.076Z,1017.61
2018-12-11T07:02:16.998Z,1017.57
2018-12-11T07:03:16.994Z,1017.60
2018-12-11T07:04:16.973Z,1017.59
2018-12-11T07:05:16.969Z,1017.57
2018-12-11T07:06:16.991Z,1017.56
2018-12-11T07:07:17.021Z,1017.61
2018-12-11T07:08:16.961Z,1017.58
2018-12-11T07:09:16.929Z,1017.56
2018-12-11T07:10:16.914Z,1017.58
2018-12-11T07:11:16.960Z,1017.60
2018-12-11T07:12:16.895Z,1017.54
2018-12-11T07:13:16.917Z,1017.64
2018-12-11T07:14:16.934Z,1017.61
2018-12-11T07:15:16.852Z,1017.66
2018-12-11T07:16:16.863Z,1017.62
2018-12-11T07:17:16.832Z,1017.69
2018-12-11T07:18:16.839Z,1017.72
2018-12-11T07:19:16.809Z,1017.73
2018-12-11T07:20:16.819Z,1017.76
2018-12-11T07:21:16.807Z,1017.76
2018-12-11T07:22:16.776Z,1017.74
2018-12-11T07:23:16.767Z,1017.71
2018-12-11T07:24:16.784Z,1017.73
2018-12-11T07:25:16.743Z,1017.78
2018-12-11T07:26:16.753Z,1017.69
2018-12-11T07:27:16.729Z,1017.75
2018-12-11T07:28:16.712Z,1017.84
2018-12-11T07:29:16.746Z,1017.80
2018-12-11T07:30:16.816Z,1017.76
2018-12-11T07:31:16.735Z,1017.74
2018-12-11T07:32:16.686Z,1017.79
2018-12-11T07:33:16.694Z,1017.81
2018-12-11T07:34:16.653Z,1017.80
2018-12-11T07:35:16.643Z,1017.86
2018-12-11T07:36:16.630Z,1017.76
2018-12-11T07:37:16.687Z,1017.80
2018-12-11T07:38:16.605Z,1017.84
2018-12-11T07:40:34.721Z,1017.78
2018-12-11T07:41:34.889Z,1017.80
2018-12-11T07:42:34.844Z,1017.75
2018-12-11T07:43:34.666Z,1017.84
2018-12-11T07:44:34.628Z,1017.89
2018-12-11T07:45:34.604Z,1017.89
2018-12-11T07:46:34.700Z,1017.90
2018-12-11T07:47:34.655Z,1017.87
2018-12-11T07:48:34.593Z,1017.92
2018-12-11T07:49:34.619Z,1017.90
2018-12-11T07:50:34.863Z,1017.83
2018-12-11T07:51:34.849Z,1017.86
2018-12-11T07:52:34.741Z,1017.87
2018-12-11T07:53:34.772Z,1017.89
2018-12-11T07:54:34.666Z,1017.90
2018-12-11T07:55:34.562Z,1017.88
2018-12-11T07:56:34.645Z,1017.90
2018-12-11T07:57:34.739Z,1017.92
2018-12-11T07:58:34.629Z,1017.92
2018-12-11T07:59:34.730Z,1017.87
2018-12-11T08:00:34.672Z,1017.89
2018-12-11T08:01:34.981Z,1017.86
2018-12-11T08:02:34.528Z,1017.89
2018-12-11T08:03:34.578Z,1017.88
2018-12-11T08:04:34.557Z,1017.87
2018-12-11T08:05:34.674Z,1017.86
2018-12-11T08:06:34.591Z,1017.86
2018-12-11T08:07:34.507Z,1017.80
2018-12-11T08:08:34.739Z,1017.79
2018-12-11T08:09:34.482Z,1017.82
2018-12-11T08:10:34.474Z,1017.79
2018-12-11T08:11:34.686Z,1017.74
2018-12-11T08:12:34.553Z,1017.77
2018-12-11T08:13:34.440Z,1017.77
2018-12-11T08:14:34.604Z,1017.78
2018-12-11T08:19:44.398Z,1017.91
2018-12-11T08:20:44.286Z,1017.89
2018-12-11T08:21:45.370Z,1017.95
2018-12-11T08:22:44.229Z,1017.94
2018-12-11T08:23:46.409Z,1017.98
2018-12-11T08:24:44.194Z,1017.93
2018-12-11T08:25:44.791Z,1017.96
2018-12-11T08:26:44.619Z,1017.96
2018-12-11T08:27:44.249Z,1017.99
2018-12-11T08:29:54.369Z,1018.00
2018-12-11T08:30:54.342Z,1018.00
2018-12-11T08:31:54.341Z,1018.04
2018-12-11T08:32:54.335Z,1017.97
2018-12-11T08:33:54.314Z,1017.99
2018-12-11T08:34:54.332Z,1017.98
2018-12-11T08:35:54.293Z,1017.99
2018-12-11T08:36:54.280Z,1017.99
2018-12-11T08:37:54.268Z,1018.05
2018-12-11T08:38:54.260Z,1018.06
2018-12-11T08:39:54.266Z,1018.03
2018-12-11T08:40:54.281Z,1018.07
2018-12-11T08:41:54.229Z,1018.10
2018-12-11T08:42:54.217Z,1018.11
2018-12-11T08:43:54.217Z,1018.06
2018-12-11T08:44:54.369Z,1018.02
2018-12-11T08:45:54.196Z,1018.07
2018-12-11T08:46:54.176Z,1018.09
2018-12-11T08:47:54.165Z,1018.10
2018-12-11T08:48:54.161Z,1018.09
2018-12-11T08:49:54.145Z,1018.14
2018-12-11T08:50:54.153Z,1018.12
2018-12-11T08:51:54.293Z,1018.08
2018-12-11T08:52:54.110Z,1018.08
2018-12-11T08:53:54.101Z,1018.12
2018-12-11T08:54:54.087Z,1018.11
2018-12-11T08:55:54.095Z,1018.16
2018-12-11T08:56:54.082Z,1018.13
2018-12-11T08:57:54.062Z,1018.11
2018-12-11T08:58:55.372Z,1018.10
2018-12-11T08:59:54.047Z,1018.07
2018-12-11T09:00:54.051Z,1018.14
2018-12-11T09:01:54.012Z,1018.05
2018-12-11T09:02:53.997Z,1018.08
2018-12-11T09:03:54.042Z,1018.11
2018-12-11T09:04:53.982Z,1018.09
2018-12-11T09:05:53.994Z,1018.15
2018-12-11T09:06:53.966Z,1018.16
2018-12-11T09:07:53.941Z,1018.15
2018-12-11T09:08:53.938Z,1018.15
2018-12-11T09:09:53.921Z,1018.22
2018-12-11T09:10:53.953Z,1018.16
2018-12-11T09:11:53.926Z,1018.16
2018-12-11T09:12:53.894Z,1018.14
2018-12-11T09:13:53.938Z,1018.15
2018-12-11T09:14:53.872Z,1018.15
2018-12-11T09:15:53.884Z,1018.13
2018-12-11T09:16:53.847Z,1018.21
2018-12-11T09:17:53.833Z,1018.18
2018-12-11T09:18:53.827Z,1018.24
2018-12-11T09:19:53.818Z,1018.23
2018-12-11T09:20:53.808Z,1018.21
2018-12-11T09:21:53.808Z,1018.24
2018-12-11T09:23:01.325Z,1018.23
2018-12-11T09:23:54.431Z,1018.20
2018-12-11T09:24:53.755Z,1018.18
2018-12-11T09:25:53.755Z,1018.19
2018-12-11T09:26:53.782Z,1018.20
2018-12-11T09:27:53.727Z,1018.17
2018-12-11T09:28:53.710Z,1018.14
2018-12-11T09:29:53.719Z,1018.14
2018-12-11T09:30:53.693Z,1018.15
2018-12-11T09:31:53.698Z,1018.06
2018-12-11T09:33:02.262Z,1018.08
2018-12-11T09:33:53.660Z,1018.05
2018-12-11T09:34:53.645Z,1018.10
2018-12-11T09:35:53.637Z,1018.11
2018-12-11T09:36:53.641Z,1018.09
2018-12-11T09:37:53.616Z,1018.12
2018-12-11T09:38:53.617Z,1018.12
2018-12-11T09:39:53.592Z,1018.05
2018-12-11T09:40:53.579Z,1018.09
2018-12-11T09:41:53.589Z,1018.18
2018-12-11T09:42:53.735Z,1018.24
2018-12-11T09:43:53.554Z,1018.21
2018-12-11T09:44:53.535Z,1018.20
2018-12-11T09:45:53.529Z,1018.27
2018-12-11T09:46:53.529Z,1018.25
2018-12-11T09:47:53.509Z,1018.26
2018-12-11T09:49:02.048Z,1018.23
2018-12-11T09:49:53.478Z,1018.21
2018-12-11T09:50:53.467Z,1018.22
2018-12-11T09:51:53.492Z,1018.23
2018-12-11T09:52:53.447Z,1018.30
2018-12-11T09:53:53.433Z,1018.33
2018-12-11T09:54:53.471Z,1018.27
2018-12-11T09:55:53.413Z,1018.31
2018-12-11T09:56:53.401Z,1018.32
2018-12-11T09:57:53.426Z,1018.28
2018-12-11T09:58:53.405Z,1018.29
2018-12-11T09:59:53.368Z,1018.36
2018-12-11T10:00:53.373Z,1018.35
2018-12-11T10:01:53.348Z,1018.31
2018-12-11T10:02:53.372Z,1018.32
2018-12-11T10:03:53.335Z,1018.35
2018-12-11T10:04:53.366Z,1018.30
2018-12-11T10:05:53.303Z,1018.28
2018-12-11T10:06:53.290Z,1018.30
2018-12-11T10:07:53.298Z,1018.32
2018-12-11T10:08:53.276Z,1018.30
2018-12-11T10:09:53.269Z,1018.32
2018-12-11T10:10:53.252Z,1018.36
2018-12-11T10:11:53.245Z,1018.34
2018-12-11T10:12:53.246Z,1018.41
2018-12-11T10:13:53.221Z,1018.40
2018-12-11T10:14:53.215Z,1018.39
2018-12-11T10:15:53.203Z,1018.41
2018-12-11T10:16:53.197Z,1018.36
2018-12-11T10:17:53.202Z,1018.39
2018-12-11T10:18:53.164Z,1018.36
2018-12-11T10:19:53.158Z,1018.35
2018-12-11T10:20:53.138Z,1018.38
2018-12-11T10:21:53.128Z,1018.41
2018-12-11T10:22:53.156Z,1018.40
2018-12-11T10:23:53.158Z,1018.39
2018-12-11T10:24:53.094Z,1018.37
2018-12-11T10:25:53.099Z,1018.36
2018-12-11T10:26:53.074Z,1018.42
2018-12-11T10:27:53.066Z,1018.38
2018-12-11T10:28:53.073Z,1018.35
2018-12-11T10:29:53.045Z,1018.38
2018-12-11T10:30:53.029Z,1018.41
2018-12-11T10:31:53.021Z,1018.43
2018-12-11T10:32:53.007Z,1018.36
2018-12-11T10:33:53.013Z,1018.36
2018-12-11T10:34:52.992Z,1018.41
2018-12-11T10:35:53.006Z,1018.40
2018-12-11T10:36:52.966Z,1018.35
2018-12-11T10:37:52.999Z,1018.43
2018-12-11T10:38:52.964Z,1018.34
2018-12-11T10:39:52.932Z,1018.41
2018-12-11T10:40:52.930Z,1018.41
2018-12-11T10:41:52.921Z,1018.39
2018-12-11T10:42:52.901Z,1018.35
2018-12-11T10:43:52.922Z,1018.35
2018-12-11T10:44:53.015Z,1018.31
2018-12-11T10:45:52.867Z,1018.39
2018-12-11T10:46:52.860Z,1018.31
2018-12-11T10:47:52.862Z,1018.28
2018-12-11T10:48:52.864Z,1018.32
2018-12-11T10:49:52.827Z,1018.29
2018-12-11T10:50:52.832Z,1018.29
2018-12-11T10:51:52.818Z,1018.35
2018-12-11T10:52:52.803Z,1018.29
2018-12-11T10:53:52.807Z,1018.35
2018-12-11T10:54:52.788Z,1018.35
2018-12-11T10:55:52.761Z,1018.38
2018-12-11T10:56:52.796Z,1018.37
2018-12-11T10:57:52.769Z,1018.35
2018-12-11T10:58:52.751Z,1018.34
2018-12-11T10:59:52.735Z,1018.29
2018-12-11T11:00:52.706Z,1018.35
2018-12-11T11:01:52.706Z,1018.36
2018-12-11T11:02:52.705Z,1018.35
2018-12-11T11:03:52.676Z,1018.35
2018-12-11T11:04:52.684Z,1018.38
2018-12-11T11:05:52.682Z,1018.34
2018-12-11T11:06:52.649Z,1018.31
2018-12-11T11:07:52.634Z,1018.31
2018-12-11T11:08:52.621Z,1018.27
2018-12-11T11:09:52.626Z,1018.29
2018-12-11T11:10:52.607Z,1018.23
2018-12-11T11:11:52.635Z,1018.24
2018-12-11T11:12:52.586Z,1018.28
2018-12-11T11:13:52.595Z,1018.27
2018-12-11T11:14:52.572Z,1018.22
2018-12-11T11:15:52.568Z,1018.21
2018-12-11T11:16:52.538Z,1018.23
2018-12-11T11:17:52.524Z,1018.22
2018-12-11T11:18:52.524Z,1018.10
2018-12-11T11:19:52.500Z,1018.16
2018-12-11T11:20:52.519Z,1018.10
2018-12-11T11:21:52.496Z,1018.16
2018-12-11T11:22:52.470Z,1018.17
2018-12-11T11:23:52.481Z,1018.18
2018-12-11T11:24:52.449Z,1018.13
2018-12-11T11:25:52.474Z,1018.12
2018-12-11T11:26:52.428Z,1018.11
2018-12-11T11:27:52.421Z,1018.20
2018-12-11T11:28:52.419Z,1018.14
2018-12-11T11:29:52.405Z,1018.17
2018-12-11T11:30:52.449Z,1018.14
2018-12-11T11:31:52.378Z,1018.12
2018-12-11T11:32:52.383Z,1018.18
2018-12-11T11:33:56.670Z,1018.15
2018-12-11T11:34:53.364Z,1018.08
2018-12-11T11:35:52.332Z,1018.12
2018-12-11T11:36:52.383Z,1018.09
2018-12-11T11:37:52.311Z,1018.06
2018-12-11T11:38:52.323Z,1018.03
2018-12-11T11:39:52.287Z,1017.96
2018-12-11T11:40:52.300Z,1018.04
2018-12-11T11:41:52.290Z,1018.04
2018-12-11T11:42:52.255Z,1017.99
2018-12-11T11:43:52.270Z,1018.01
2018-12-11T11:44:52.269Z,1018.05
2018-12-11T11:45:52.225Z,1018.02
2018-12-11T11:46:52.231Z,1018.05
2018-12-11T11:47:52.208Z,1018.00
2018-12-11T11:48:52.195Z,1018.01
2018-12-11T11:49:52.182Z,1018.00
2018-12-11T11:50:52.194Z,1018.07
2018-12-11T11:51:52.185Z,1017.95
2018-12-11T11:52:52.146Z,1017.97
2018-12-11T11:53:52.140Z,1017.98
2018-12-11T11:54:52.132Z,1017.93
2018-12-11T11:55:52.117Z,1017.95
2018-12-11T11:56:52.140Z,1017.90
2018-12-11T11:57:52.091Z,1017.93
2018-12-11T11:58:52.083Z,1017.96
2018-12-11T11:59:52.078Z,1017.96
2018-12-11T12:00:52.073Z,1017.98
2018-12-11T12:01:52.095Z,1017.97
2018-12-11T12:02:52.039Z,1017.96
2018-12-11T12:03:52.035Z,1017.93
2018-12-11T12:04:52.016Z,1017.92
2018-12-11T12:05:52.034Z,1017.94
2018-12-11T12:06:51.993Z,1017.94
2018-12-11T12:07:52.006Z,1017.96
2018-12-11T12:08:51.978Z,1017.95
2018-12-11T12:09:51.993Z,1017.99
2018-12-11T12:10:51.954Z,1017.96
2018-12-11T12:11:51.944Z,1017.96